Dover, Michigan
Current Conditions -  °F | °C
As of 8:53 AM on Friday 19 Dec 2014 (Local Time) from KARB Reporting Station
Overcast Overcast  
Wind Chill: -6°   Ceiling: 2400
Heat Index: -3°   Visibility: 10mi
Dew Point: -5°   Wind: 5mph
Humidity: 85%   Direction: 10°N
Pressure: 30.26"   Gusts: NA
Location:  42.3528°N, 83.8974°W
Report Text: KARB 191353Z 01004KT 10SM FEW016 OVC024 M03/M05 A3026 RMK AO2 SLP257 T10281050
Loading
Personal Weather Stations






























Interactive Weather Map New forecast layout! Learn more

10-Day Weather Forecast

Advertisements
Track Severe Weather on mobile